Time;durP1;ratioP1;P1;durP2;ratioP2;P2;SDS_P1;SDS_P2;PMS_P1;PMS_P2;Temp;Humidity;BMP_temperature;BMP_pressure;BME280_temperature;BME280_humidity;BME280_pressure;Samples;Min_cycle;Max_cycle;Signal;HPM_P1;HPM_P2
2022/05/21 00:00:00;;;;;;;;;;;;;;;;;;4945998;28;135689;-62
2022/05/21 00:02:29;;;;;;;;;;;;;;;;;;4949872;28;106295;-63
2022/05/21 00:04:55;;;;;;;;;;;;;;;;;;4960608;28;137367;-62
2022/05/21 00:07:22;;;;;;;;;;;;;;;;;;4951922;28;138059;-63
2022/05/21 00:09:48;;;;;;;;;;;;;;;;;;4939795;28;135168;-62
2022/05/21 00:12:15;;;;;;;;;;;;;;;;;;4949684;28;137667;-62
2022/05/21 00:14:41;;;;;;;;;;;;;;;;;;4942564;28;121994;-62
2022/05/21 00:17:09;;;;;;;;;;;;;;;;;;4949141;28;106104;-63
2022/05/21 00:19:35;;;;;;;;;;;;;;;;;;4949242;28;134499;-62
2022/05/21 00:22:02;;;;;;;;;;;;;;;;;;4948602;28;120420;-63
2022/05/21 00:24:28;;;;;;;;;;;;;;;;;;4944712;28;137064;-62
2022/05/21 00:26:54;;;;;;;;;;;;;;;;;;4935032;28;138337;-63
2022/05/21 00:29:21;;;;;;;;;;;;;;;;;;4953526;28;108061;-62
2022/05/21 00:31:47;;;;;;;;;;;;;;;;;;4943546;28;135901;-62
2022/05/21 00:34:13;;;;;;;;;;;;;;;;;;4948830;28;119962;-62
2022/05/21 00:36:39;;;;;;;;;;;;;;;;;;4947232;28;136157;-62
2022/05/21 00:39:06;;;;;;;;;;;;;;;;;;4949168;28;108236;-63
2022/05/21 00:41:32;;;;;;;;;;;;;;;;;;4947325;28;106353;-62
2022/05/21 00:43:58;;;;;;;;;;;;;;;;;;4948943;28;137326;-62
2022/05/21 00:46:25;;;;;;;;;;;;;;;;;;4948293;28;137702;-62
2022/05/21 00:48:51;;;;;;;;;;;;;;;;;;4946853;28;122285;-62
2022/05/21 00:51:19;;;;;;;;;;;;;;;;;;4951674;28;136602;-62
2022/05/21 00:53:45;;;;;;;;;;;;;;;;;;4940667;28;126510;-62
2022/05/21 00:56:11;;;;;;;;;;;;;;;;;;4941445;28;129891;-64
2022/05/21 01:01:23;;;;;;;;;;;;;;;;;;4946370;28;124319;-62
2022/05/21 01:03:49;;;;;;;;;;;;;;;;;;4945455;28;135522;-62
2022/05/21 01:06:15;;;;;;;;;;;;;;;;;;4948473;28;127273;-62
2022/05/21 01:08:42;;;;;;;;;;;;;;;;;;4941679;28;121967;-61
2022/05/21 01:11:08;;;;;;;;;;;;;;;;;;4949033;28;116471;-62
2022/05/21 01:13:34;;;;;;;;;;;;;;;;;;4947047;28;106337;-63
2022/05/21 01:16:00;;;;;;;;;;;;;;;;;;4939966;28;135876;-64
2022/05/21 01:18:27;;;;;;;;;;;;;;;;;;4945291;28;137012;-62
2022/05/21 01:20:55;;;;;;;;;;;;;;;;;;4950178;28;106067;-62
2022/05/21 01:23:22;;;;;;;;;;;;;;;;;;4942784;28;128327;-63
2022/05/21 01:25:48;;;;;;;;;;;;;;;;;;4940413;28;137678;-62
2022/05/21 01:28:14;;;;;;;;;;;;;;;;;;4947940;28;122149;-62
2022/05/21 01:30:40;;;;;;;;;;;;;;;;;;4938802;28;137370;-62
2022/05/21 01:33:07;;;;;;;;;;;;;;;;;;4952800;28;118506;-62
2022/05/21 01:35:33;;;;;;;;;;;;;;;;;;4948211;28;136423;-62
2022/05/21 01:38:00;;;;;;;;;;;;;;;;;;4946956;28;136230;-62
2022/05/21 01:40:26;;;;;;;;;;;;;;;;;;4946957;28;124141;-62
2022/05/21 01:45:37;;;;;;;;;;;;;;;;;;4948977;28;138769;-62
2022/05/21 01:48:04;;;;;;;;;;;;;;;;;;4939608;28;123403;-65
2022/05/21 01:50:30;;;;;;;;;;;;;;;;;;4946653;28;135456;-62
2022/05/21 01:52:56;;;;;;;;;;;;;;;;;;4937003;28;137068;-61
2022/05/21 01:55:23;;;;;;;;;;;;;;;;;;4938982;28;124075;-62
2022/05/21 01:57:50;;;;;;;;;;;;;;;;;;4944343;28;137635;-62
2022/05/21 02:00:16;;;;;;;;;;;;;;;;;;4949767;28;118406;-62
2022/05/21 02:02:42;;;;;;;;;;;;;;;;;;4937820;28;132041;-62
2022/05/21 02:05:09;;;;;;;;;;;;;;;;;;4946352;28;137757;-62
2022/05/21 02:07:35;;;;;;;;;;;;;;;;;;4946353;28;106584;-62
2022/05/21 02:10:01;;;;;;;;;;;;;;;;;;4940234;28;133859;-61
2022/05/21 02:12:28;;;;;;;;;;;;;;;;;;4934565;28;135654;-63
2022/05/21 02:14:57;;;;;;;;;;;;;;;;;;4948158;28;106380;-62
2022/05/21 02:17:23;;;;;;;;;;;;;;;;;;4945953;28;130485;-61
2022/05/21 02:19:49;;;;;;;;;;;;;;;;;;4948748;28;109512;-62
2022/05/21 02:22:16;;;;;;;;;;;;;;;;;;4935611;28;135135;-62
2022/05/21 02:24:42;;;;;;;;;;;;;;;;;;4944203;28;137975;-62
2022/05/21 02:27:09;;;;;;;;;;;;;;;;;;4943718;28;107588;-61
2022/05/21 02:29:35;;;;;;;;;;;;;;;;;;4944299;28;135129;-62
2022/05/21 02:32:02;;;;;;;;;;;;;;;;;;4949350;28;107220;-62
2022/05/21 02:34:28;;;;;;;;;;;;;;;;;;4944626;28;124351;-62
2022/05/21 02:39:50;;;;;;;;;;;;;;;;;;4922382;28;107377;-62
2022/05/21 02:45:03;;;;;;;;;;;;;;;;;;4934902;28;137664;-62
2022/05/21 02:47:29;;;;;;;;;;;;;;;;;;4936317;28;123567;-62
2022/05/21 02:49:55;;;;;;;;;;;;;;;;;;4941553;28;137316;-63
2022/05/21 02:52:22;;;;;;;;;;;;;;;;;;4943269;28;107278;-63
2022/05/21 02:54:49;;;;;;;;;;;;;;;;;;4938755;28;124019;-62
2022/05/21 02:57:15;;;;;;;;;;;;;;;;;;4947455;28;112561;-63
2022/05/21 02:59:41;;;;;;;;;;;;;;;;;;4944622;28;137682;-63
2022/05/21 03:02:08;;;;;;;;;;;;;;;;;;4941622;28;124168;-62
2022/05/21 03:04:34;;;;;;;;;;;;;;;;;;4947600;28;136413;-67
2022/05/21 03:07:00;;;;;;;;;;;;;;;;;;4937101;28;124118;-63
2022/05/21 03:12:12;;;;;;;;;;;;;;;;;;4944897;28;137092;-64
2022/05/21 03:14:38;;;;;;;;;;;;;;;;;;4942486;28;106976;-63
2022/05/21 03:17:04;;;;;;;;;;;;;;;;;;4942592;28;135088;-63
2022/05/21 03:19:31;;;;;;;;;;;;;;;;;;4946887;28;138244;-62
2022/05/21 03:21:57;;;;;;;;;;;;;;;;;;4948222;28;126479;-62
2022/05/21 03:24:23;;;;;;;;;;;;;;;;;;4945602;28;131264;-62
2022/05/21 03:26:50;;;;;;;;;;;;;;;;;;4946278;28;112057;-62
2022/05/21 03:29:16;;;;;;;;;;;;;;;;;;4944790;28;136654;-63
2022/05/21 03:31:42;;;;;;;;;;;;;;;;;;4944215;28;135011;-62
2022/05/21 03:34:09;;;;;;;;;;;;;;;;;;4943194;28;122505;-62
2022/05/21 03:36:35;;;;;;;;;;;;;;;;;;4942492;28;136438;-63
2022/05/21 03:39:02;;;;;;;;;;;;;;;;;;4937226;28;107819;-63
2022/05/21 03:41:28;;;;;;;;;;;;;;;;;;4936380;28;122213;-63
2022/05/21 03:43:55;;;;;;;;;;;;;;;;;;4948048;28;137259;-62
2022/05/21 03:46:21;;;;;;;;;;;;;;;;;;4940705;28;125727;-63
2022/05/21 03:48:48;;;;;;;;;;;;;;;;;;4942174;28;134950;-62
2022/05/21 03:51:14;;;;;;;;;;;;;;;;;;4947698;28;137163;-62
2022/05/21 03:53:41;;;;;;;;;;;;;;;;;;4951048;28;107046;-62
2022/05/21 03:56:07;;;;;;;;;;;;;;;;;;4948579;28;137004;-63
2022/05/21 03:58:34;;;;;;;;;;;;;;;;;;4943356;28;135611;-66
2022/05/21 04:01:00;;;;;;;;;;;;;;;;;;4948010;28;123345;-62
2022/05/21 04:03:26;;;;;;;;;;;;;;;;;;4948166;28;122826;-62
2022/05/21 04:05:52;;;;;;;;;;;;;;;;;;4951435;28;107230;-63
2022/05/21 04:08:19;;;;;;;;;;;;;;;;;;4944201;28;137732;-62
2022/05/21 04:10:45;;;;;;;;;;;;;;;;;;4948331;28;137145;-63
2022/05/21 04:13:12;;;;;;;;;;;;;;;;;;4947374;28;123119;-62
2022/05/21 04:15:38;;;;;;;;;;;;;;;;;;4949193;28;137539;-63
2022/05/21 04:18:04;;;;;;;;;;;;;;;;;;4948739;28;137156;-64
2022/05/21 04:20:30;;;;;;;;;;;;;;;;;;4941666;28;122009;-62
2022/05/21 04:22:57;;;;;;;;;;;;;;;;;;4943519;28;109670;-62
2022/05/21 04:25:23;;;;;;;;;;;;;;;;;;4945357;28;137800;-63
2022/05/21 04:27:49;;;;;;;;;;;;;;;;;;4948143;28;106975;-62
2022/05/21 04:30:16;;;;;;;;;;;;;;;;;;4947483;28;137093;-62
2022/05/21 04:32:43;;;;;;;;;;;;;;;;;;4948056;28;122256;-63
2022/05/21 04:35:09;;;;;;;;;;;;;;;;;;4946860;28;137401;-62
2022/05/21 04:37:36;;;;;;;;;;;;;;;;;;4947322;28;137788;-64
2022/05/21 04:40:02;;;;;;;;;;;;;;;;;;4947766;28;122715;-62
2022/05/21 04:42:28;;;;;;;;;;;;;;;;;;4949014;28;109238;-64
2022/05/21 04:44:55;;;;;;;;;;;;;;;;;;4949387;28;136228;-63
2022/05/21 04:47:22;;;;;;;;;;;;;;;;;;4949580;28;108049;-63
2022/05/21 04:49:48;;;;;;;;;;;;;;;;;;4949358;28;129913;-62
2022/05/21 04:52:14;;;;;;;;;;;;;;;;;;4947229;28;122030;-64
2022/05/21 04:54:41;;;;;;;;;;;;;;;;;;4937821;28;135011;-62
2022/05/21 04:57:07;;;;;;;;;;;;;;;;;;4944576;28;137129;-63
2022/05/21 04:59:33;;;;;;;;;;;;;;;;;;4951125;28;113043;-63
2022/05/21 05:01:59;;;;;;;;;;;;;;;;;;4944058;28;132427;-63
2022/05/21 05:04:26;;;;;;;;;;;;;;;;;;4947777;28;135874;-63
2022/05/21 05:06:52;;;;;;;;;;;;;;;;;;4938033;28;122020;-62
2022/05/21 05:09:22;;;;;;;;;;;;;;;;;;4948626;28;136244;-63
2022/05/21 05:11:51;;;;;;;;;;;;;;;;;;4950343;28;107240;-63
2022/05/21 05:14:17;;;;;;;;;;;;;;;;;;4944042;28;136292;-62
2022/05/21 05:16:43;;;;;;;;;;;;;;;;;;4948316;28;126203;-63
2022/05/21 05:19:13;;;;;;;;;;;;;;;;;;4940646;28;117291;-63
2022/05/21 05:21:40;;;;;;;;;;;;;;;;;;4946634;28;136557;-62
2022/05/21 05:24:06;;;;;;;;;;;;;;;;;;4945390;28;128149;-64
2022/05/21 05:26:33;;;;;;;;;;;;;;;;;;4947241;28;123042;-62
2022/05/21 05:28:59;;;;;;;;;;;;;;;;;;4942085;28;124527;-63
2022/05/21 05:31:25;;;;;;;;;;;;;;;;;;4944317;28;134789;-63
2022/05/21 05:33:52;;;;;;;;;;;;;;;;;;4946968;28;120608;-62
2022/05/21 05:36:18;;;;;;;;;;;;;;;;;;4943896;28;136868;-63
2022/05/21 05:38:44;;;;;;;;;;;;;;;;;;4950046;28;106708;-63
2022/05/21 05:41:11;;;;;;;;;;;;;;;;;;4943615;28;120904;-63
2022/05/21 05:43:41;;;;;;;;;;;;;;;;;;4949309;28;111138;-63
2022/05/21 05:46:08;;;;;;;;;;;;;;;;;;4941930;28;118287;-65
2022/05/21 05:48:34;;;;;;;;;;;;;;;;;;4948904;28;134222;-64
2022/05/21 05:51:02;;;;;;;;;;;;;;;;;;4945706;28;123336;-63
2022/05/21 05:53:28;;;;;;;;;;;;;;;;;;4951287;28;124124;-63
2022/05/21 05:55:55;;;;;;;;;;;;;;;;;;4946170;28;138008;-63
2022/05/21 06:01:08;;;;;;;;;;;;;;;;;;4947688;28;133941;-62
2022/05/21 06:03:36;;;;;;;;;;;;;;;;;;4943199;28;136574;-64
2022/05/21 06:06:03;;;;;;;;;;;;;;;;;;4945251;28;122387;-63
2022/05/21 06:08:29;;;;;;;;;;;;;;;;;;4944537;28;137330;-62
2022/05/21 06:10:55;;;;;;;;;;;;;;;;;;4946061;28;136362;-63
2022/05/21 06:13:22;;;;;;;;;;;;;;;;;;4944845;28;124355;-64
2022/05/21 06:15:48;;;;;;;;;;;;;;;;;;4947781;28;136933;-65
2022/05/21 06:18:14;;;;;;;;;;;;;;;;;;4946846;28;106438;-63
2022/05/21 06:20:41;;;;;;;;;;;;;;;;;;4944432;28;137079;-63
2022/05/21 06:23:07;;;;;;;;;;;;;;;;;;4941239;28;137400;-63
2022/05/21 06:25:33;;;;;;;;;;;;;;;;;;4942644;28;112138;-63
2022/05/21 06:27:59;;;;;;;;;;;;;;;;;;4942486;28;133731;-63
2022/05/21 06:30:26;;;;;;;;;;;;;;;;;;4938092;28;137374;-64
2022/05/21 06:32:53;;;;;;;;;;;;;;;;;;4944680;28;115266;-63
2022/05/21 06:35:19;;;;;;;;;;;;;;;;;;4942773;28;135548;-63
2022/05/21 06:37:45;;;;;;;;;;;;;;;;;;4948225;28;138129;-64
2022/05/21 06:40:11;;;;;;;;;;;;;;;;;;4940235;28;136304;-63
2022/05/21 06:42:38;;;;;;;;;;;;;;;;;;4944204;28;117284;-63
2022/05/21 06:45:05;;;;;;;;;;;;;;;;;;4943733;28;107520;-64
2022/05/21 06:47:31;;;;;;;;;;;;;;;;;;4942547;28;131005;-63
2022/05/21 06:49:58;;;;;;;;;;;;;;;;;;4942127;28;138096;-63
2022/05/21 06:52:24;;;;;;;;;;;;;;;;;;4942258;28;123110;-64
2022/05/21 06:54:51;;;;;;;;;;;;;;;;;;4946434;28;137245;-64
2022/05/21 06:57:17;;;;;;;;;;;;;;;;;;4945844;28;137400;-63
2022/05/21 06:59:43;;;;;;;;;;;;;;;;;;4948448;28;115688;-64
2022/05/21 07:02:10;;;;;;;;;;;;;;;;;;4942307;28;137541;-64
2022/05/21 07:07:33;;;;;;;;;;;;;;;;;;4946155;28;136941;-66
2022/05/21 07:10:00;;;;;;;;;;;;;;;;;;4945913;28;136885;-62
2022/05/21 07:12:26;;;;;;;;;;;;;;;;;;4937635;28;123913;-64
2022/05/21 07:14:52;;;;;;;;;;;;;;;;;;4959322;28;137104;-62
2022/05/21 07:17:18;;;;;;;;;;;;;;;;;;4946285;28;137867;-61
2022/05/21 07:19:45;;;;;;;;;;;;;;;;;;4933880;28;121383;-64
2022/05/21 07:22:11;;;;;;;;;;;;;;;;;;4945531;28;132381;-64
2022/05/21 07:24:37;;;;;;;;;;;;;;;;;;4946482;28;123805;-63
2022/05/21 07:27:04;;;;;;;;;;;;;;;;;;4945237;28;106817;-67
2022/05/21 07:29:30;;;;;;;;;;;;;;;;;;4949148;28;137190;-64
2022/05/21 07:31:56;;;;;;;;;;;;;;;;;;4948794;28;122941;-62
2022/05/21 07:34:23;;;;;;;;;;;;;;;;;;4948376;28;135985;-62
2022/05/21 07:36:51;;;;;;;;;;;;;;;;;;4946515;28;107739;-62
2022/05/21 07:39:17;;;;;;;;;;;;;;;;;;4950746;28;122108;-62
2022/05/21 07:41:43;;;;;;;;;;;;;;;;;;4946618;28;135746;-62
2022/05/21 07:44:09;;;;;;;;;;;;;;;;;;4949507;28;123285;-63
2022/05/21 07:46:38;;;;;;;;;;;;;;;;;;4950805;28;107004;-62
2022/05/21 07:49:04;;;;;;;;;;;;;;;;;;4945440;28;134895;-63
2022/05/21 07:51:32;;;;;;;;;;;;;;;;;;4948474;28;124357;-63
2022/05/21 07:53:58;;;;;;;;;;;;;;;;;;4947419;28;139338;-62
2022/05/21 07:56:26;;;;;;;;;;;;;;;;;;4945541;28;135606;-64
2022/05/21 07:58:53;;;;;;;;;;;;;;;;;;4951733;28;106518;-64
2022/05/21 08:01:19;;;;;;;;;;;;;;;;;;4962821;28;134744;-65
2022/05/21 08:03:45;;;;;;;;;;;;;;;;;;4948296;28;137445;-65
2022/05/21 08:06:12;;;;;;;;;;;;;;;;;;4949166;28;136432;-65
2022/05/21 08:08:38;;;;;;;;;;;;;;;;;;4942903;28;137991;-64
2022/05/21 08:11:04;;;;;;;;;;;;;;;;;;4947137;28;123176;-65
2022/05/21 08:13:31;;;;;;;;;;;;;;;;;;4942599;28;109412;-66
2022/05/21 08:15:57;;;;;;;;;;;;;;;;;;4943703;28;135509;-64
2022/05/21 08:18:24;;;;;;;;;;;;;;;;;;4948797;28;123148;-63
2022/05/21 08:20:53;;;;;;;;;;;;;;;;;;4947505;28;135252;-63
2022/05/21 08:28:49;;;;;;;;;;;;;;;;;;4948492;28;137112;-65
2022/05/21 08:31:16;;;;;;;;;;;;;;;;;;4943750;28;120688;-63
2022/05/21 08:33:42;;;;;;;;;;;;;;;;;;4949773;28;134977;-65
2022/05/21 08:36:08;;;;;;;;;;;;;;;;;;4947591;28;137537;-64
2022/05/21 08:38:35;;;;;;;;;;;;;;;;;;4947804;28;116236;-64
2022/05/21 08:41:03;;;;;;;;;;;;;;;;;;4947200;28;136619;-64
2022/05/21 08:43:29;;;;;;;;;;;;;;;;;;4946454;28;138420;-63
2022/05/21 08:45:55;;;;;;;;;;;;;;;;;;4945310;28;122053;-62
2022/05/21 08:48:22;;;;;;;;;;;;;;;;;;4953261;28;111532;-64
2022/05/21 08:50:48;;;;;;;;;;;;;;;;;;4947025;28;121270;-66
2022/05/21 08:53:14;;;;;;;;;;;;;;;;;;4942926;28;135351;-63
2022/05/21 08:55:42;;;;;;;;;;;;;;;;;;4946505;28;122132;-64
2022/05/21 08:58:08;;;;;;;;;;;;;;;;;;4941343;28;118254;-64
2022/05/21 09:00:35;;;;;;;;;;;;;;;;;;4945537;28;139384;-63
2022/05/21 09:03:02;;;;;;;;;;;;;;;;;;4949031;28;136889;-63
2022/05/21 09:05:28;;;;;;;;;;;;;;;;;;4948326;28;125773;-65
2022/05/21 09:07:57;;;;;;;;;;;;;;;;;;4947976;28;135140;-64
2022/05/21 09:10:23;;;;;;;;;;;;;;;;;;4953174;28;108617;-65
2022/05/21 09:12:52;;;;;;;;;;;;;;;;;;4939828;28;137294;-65
2022/05/21 09:16:54;;;;;;;;;;;;;;;;;;4946237;28;129916;-64
2022/05/21 09:18:04;;;;;;;;;;;;;;;;;;4949347;28;122582;-65
2022/05/21 09:20:31;;;;;;;;;;;;;;;;;;4943456;28;107404;-64
2022/05/21 09:22:58;;;;;;;;;;;;;;;;;;4949089;28;107475;-65
2022/05/21 09:25:24;;;;;;;;;;;;;;;;;;4936937;28;124337;-66
2022/05/21 09:27:50;;;;;;;;;;;;;;;;;;4944410;28;135107;-65
2022/05/21 09:30:19;;;;;;;;;;;;;;;;;;4942307;28;107377;-65
2022/05/21 09:32:46;;;;;;;;;;;;;;;;;;4950890;28;122699;-65
2022/05/21 09:35:12;;;;;;;;;;;;;;;;;;4944350;28;136280;-65
2022/05/21 09:37:39;;;;;;;;;;;;;;;;;;4945758;28;106194;-64
2022/05/21 09:40:05;;;;;;;;;;;;;;;;;;4944511;28;107189;-63
2022/05/21 09:45:22;;;;;;;;;;;;;;;;;;4948318;28;121874;-64
2022/05/21 09:47:49;;;;;;;;;;;;;;;;;;4943568;28;119576;-63
2022/05/21 09:50:15;;;;;;;;;;;;;;;;;;4944328;28;135021;-64
2022/05/21 09:52:43;;;;;;;;;;;;;;;;;;4946340;28;123302;-63
2022/05/21 09:55:09;;;;;;;;;;;;;;;;;;4947740;28;137944;-66
2022/05/21 09:57:37;;;;;;;;;;;;;;;;;;4947748;28;125020;-65
2022/05/21 10:00:04;;;;;;;;;;;;;;;;;;4943714;28;129855;-66
2022/05/21 10:02:36;;;;;;;;;;;;;;;;;;4944897;28;106079;-64
2022/05/21 10:05:03;;;;;;;;;;;;;;;;;;4945642;28;123235;-65
2022/05/21 10:12:59;;;;;;;;;;;;;;;;;;4949879;28;115825;-65
2022/05/21 10:15:26;;;;;;;;;;;;;;;;;;4945499;28;116592;-66
2022/05/21 10:17:53;;;;;;;;;;;;;;;;;;4938567;28;123817;-65
2022/05/21 10:20:20;;;;;;;;;;;;;;;;;;4943964;28;125192;-66
2022/05/21 10:22:47;;;;;;;;;;;;;;;;;;4949047;28;107562;-68
2022/05/21 10:25:13;;;;;;;;;;;;;;;;;;4945539;28;122133;-67
2022/05/21 10:27:40;;;;;;;;;;;;;;;;;;4942799;28;136863;-64
2022/05/21 10:30:06;;;;;;;;;;;;;;;;;;4943046;28;138678;-65
2022/05/21 10:32:32;;;;;;;;;;;;;;;;;;4944705;28;123751;-66
2022/05/21 10:34:59;;;;;;;;;;;;;;;;;;4944558;28;106683;-65
2022/05/21 10:37:25;;;;;;;;;;;;;;;;;;4941066;28;136596;-65
2022/05/21 10:39:53;;;;;;;;;;;;;;;;;;4947132;28;137799;-65
2022/05/21 10:42:20;;;;;;;;;;;;;;;;;;4946846;28;135786;-65
2022/05/21 10:44:46;;;;;;;;;;;;;;;;;;4950014;28;107070;-65
2022/05/21 10:47:12;;;;;;;;;;;;;;;;;;4944192;28;114875;-65
2022/05/21 10:49:39;;;;;;;;;;;;;;;;;;4944731;28;137102;-65
2022/05/21 10:52:05;;;;;;;;;;;;;;;;;;4944920;28;123288;-66
2022/05/21 10:54:31;;;;;;;;;;;;;;;;;;4942806;28;137832;-65
2022/05/21 10:56:57;;;;;;;;;;;;;;;;;;4942112;28;136937;-65
2022/05/21 10:59:24;;;;;;;;;;;;;;;;;;4942301;28;107875;-66
2022/05/21 11:01:50;;;;;;;;;;;;;;;;;;4945083;28;137245;-66
2022/05/21 11:04:20;;;;;;;;;;;;;;;;;;4937225;28;118948;-65
2022/05/21 11:06:47;;;;;;;;;;;;;;;;;;4941999;28;133087;-66
2022/05/21 11:09:13;;;;;;;;;;;;;;;;;;4946543;28;137506;-65
2022/05/21 11:11:40;;;;;;;;;;;;;;;;;;4941096;28;122815;-66
2022/05/21 11:14:07;;;;;;;;;;;;;;;;;;4948466;28;122482;-66
2022/05/21 11:16:35;;;;;;;;;;;;;;;;;;4946405;28;133382;-66
2022/05/21 11:19:01;;;;;;;;;;;;;;;;;;4951532;28;123155;-65
2022/05/21 11:21:27;;;;;;;;;;;;;;;;;;4944057;28;134543;-66
2022/05/21 11:23:54;;;;;;;;;;;;;;;;;;4949551;28;122175;-66
2022/05/21 11:26:22;;;;;;;;;;;;;;;;;;4945119;28;137254;-65
2022/05/21 11:28:49;;;;;;;;;;;;;;;;;;4950861;28;107147;-65
2022/05/21 11:31:15;;;;;;;;;;;;;;;;;;4948404;28;107253;-65
2022/05/21 11:39:12;;;;;;;;;;;;;;;;;;4948425;28;121806;-65
2022/05/21 11:41:38;;;;;;;;;;;;;;;;;;4949840;28;136406;-66
2022/05/21 11:46:50;;;;;;;;;;;;;;;;;;4947334;28;135517;-66
2022/05/21 11:49:16;;;;;;;;;;;;;;;;;;4944136;28;136159;-66
2022/05/21 11:51:42;;;;;;;;;;;;;;;;;;4946177;28;123049;-65
2022/05/21 11:54:08;;;;;;;;;;;;;;;;;;4946942;28;124824;-66
2022/05/21 11:56:36;;;;;;;;;;;;;;;;;;4944985;28;111241;-66
2022/05/21 11:59:02;;;;;;;;;;;;;;;;;;4944516;28;125551;-64
2022/05/21 12:01:28;;;;;;;;;;;;;;;;;;4935294;28;137459;-63
2022/05/21 12:03:55;;;;;;;;;;;;;;;;;;4952993;28;131142;-62
2022/05/21 12:06:22;;;;;;;;;;;;;;;;;;4946368;28;136509;-63
2022/05/21 12:08:48;;;;;;;;;;;;;;;;;;4946478;28;136341;-62
2022/05/21 12:11:14;;;;;;;;;;;;;;;;;;4945156;28;120114;-64
2022/05/21 12:13:40;;;;;;;;;;;;;;;;;;4948476;28;136628;-64
2022/05/21 12:16:07;;;;;;;;;;;;;;;;;;4947564;28;137243;-64
2022/05/21 12:18:33;;;;;;;;;;;;;;;;;;4946513;28;106473;-63
2022/05/21 12:21:00;;;;;;;;;;;;;;;;;;4940534;28;127813;-63
2022/05/21 12:23:26;;;;;;;;;;;;;;;;;;4942092;28;133018;-64
2022/05/21 12:25:53;;;;;;;;;;;;;;;;;;4941906;28;108971;-64
2022/05/21 12:28:19;;;;;;;;;;;;;;;;;;4938076;28;137741;-64
2022/05/21 12:30:45;;;;;;;;;;;;;;;;;;4938090;28;121369;-65
2022/05/21 12:33:12;;;;;;;;;;;;;;;;;;4941461;28;121305;-64
2022/05/21 12:35:41;;;;;;;;;;;;;;;;;;4940357;28;137891;-64
2022/05/21 12:38:07;;;;;;;;;;;;;;;;;;4940743;28;122840;-66
2022/05/21 12:40:33;;;;;;;;;;;;;;;;;;4945875;28;137120;-63
2022/05/21 12:43:00;;;;;;;;;;;;;;;;;;4935685;28;134440;-64
2022/05/21 12:45:26;;;;;;;;;;;;;;;;;;4933020;28;122003;-63
2022/05/21 12:47:53;;;;;;;;;;;;;;;;;;4942644;28;107233;-63
2022/05/21 12:50:19;;;;;;;;;;;;;;;;;;4943251;28;124112;-64
2022/05/21 12:52:45;;;;;;;;;;;;;;;;;;4940444;28;136524;-63
2022/05/21 12:55:11;;;;;;;;;;;;;;;;;;4942942;28;138012;-63
2022/05/21 12:57:39;;;;;;;;;;;;;;;;;;4941662;28;108805;-63
2022/05/21 13:00:05;;;;;;;;;;;;;;;;;;4943000;28;137467;-64
2022/05/21 13:02:31;;;;;;;;;;;;;;;;;;4946720;28;129930;-63
2022/05/21 13:04:57;;;;;;;;;;;;;;;;;;4946562;28;106953;-63
2022/05/21 13:07:24;;;;;;;;;;;;;;;;;;4937829;28;131079;-64
2022/05/21 13:09:50;;;;;;;;;;;;;;;;;;4936087;28;120244;-64
2022/05/21 13:12:17;;;;;;;;;;;;;;;;;;4938314;28;136566;-64
2022/05/21 13:14:45;;;;;;;;;;;;;;;;;;4949504;28;136164;-65
2022/05/21 13:17:12;;;;;;;;;;;;;;;;;;4939347;28;117802;-63
2022/05/21 13:19:38;;;;;;;;;;;;;;;;;;4955776;28;134908;-65
2022/05/21 13:22:04;;;;;;;;;;;;;;;;;;4946263;28;107347;-66
2022/05/21 13:24:31;;;;;;;;;;;;;;;;;;4950618;28;106367;-65
2022/05/21 13:26:57;;;;;;;;;;;;;;;;;;4940752;28;135971;-64
2022/05/21 13:29:23;;;;;;;;;;;;;;;;;;4945682;28;128457;-65
2022/05/21 13:31:50;;;;;;;;;;;;;;;;;;4948445;28;107471;-66
2022/05/21 13:34:16;;;;;;;;;;;;;;;;;;4945741;28;136569;-65
2022/05/21 13:36:42;;;;;;;;;;;;;;;;;;4950721;28;106803;-65
2022/05/21 13:39:08;;;;;;;;;;;;;;;;;;4944794;28;136888;-65
2022/05/21 13:41:36;;;;;;;;;;;;;;;;;;4942811;28;138082;-66
2022/05/21 13:44:06;;;;;;;;;;;;;;;;;;4945134;28;106237;-66
2022/05/21 13:46:32;;;;;;;;;;;;;;;;;;4944876;28;118578;-65
2022/05/21 13:48:59;;;;;;;;;;;;;;;;;;4939018;28;137750;-65
2022/05/21 13:51:26;;;;;;;;;;;;;;;;;;4943669;28;122920;-65
2022/05/21 13:53:53;;;;;;;;;;;;;;;;;;4944351;28;137007;-65
2022/05/21 13:56:19;;;;;;;;;;;;;;;;;;4947058;28;123191;-65
2022/05/21 13:58:46;;;;;;;;;;;;;;;;;;4943776;28;137256;-64
2022/05/21 14:01:12;;;;;;;;;;;;;;;;;;4948721;28;137905;-65
2022/05/21 14:03:43;;;;;;;;;;;;;;;;;;4935515;28;121692;-64
2022/05/21 14:06:09;;;;;;;;;;;;;;;;;;4942804;28;136496;-66
2022/05/21 14:08:36;;;;;;;;;;;;;;;;;;4944920;28;107798;-66
2022/05/21 14:11:02;;;;;;;;;;;;;;;;;;4943081;28;117175;-64
2022/05/21 14:13:30;;;;;;;;;;;;;;;;;;4943026;28;113795;-64
2022/05/21 14:15:57;;;;;;;;;;;;;;;;;;4950016;28;106448;-65
2022/05/21 14:18:23;;;;;;;;;;;;;;;;;;4945560;28;135469;-65
2022/05/21 14:20:49;;;;;;;;;;;;;;;;;;4946509;28;134283;-64
2022/05/21 14:23:17;;;;;;;;;;;;;;;;;;4947119;28;116924;-64
2022/05/21 14:26:00;;;;;;;;;;;;;;;;;;4944056;28;108260;-64
2022/05/21 14:28:26;;;;;;;;;;;;;;;;;;4927010;28;134476;-63
2022/05/21 14:30:53;;;;;;;;;;;;;;;;;;4934907;28;121916;-62
2022/05/21 14:33:25;;;;;;;;;;;;;;;;;;4939808;28;137572;-64
2022/05/21 14:35:51;;;;;;;;;;;;;;;;;;4938184;28;137861;-64
2022/05/21 14:38:19;;;;;;;;;;;;;;;;;;4936768;28;107207;-63
2022/05/21 14:40:46;;;;;;;;;;;;;;;;;;4938867;28;108946;-64
2022/05/21 14:43:12;;;;;;;;;;;;;;;;;;4944475;28;122489;-64
2022/05/21 14:45:38;;;;;;;;;;;;;;;;;;4931182;28;136636;-64
2022/05/21 14:48:05;;;;;;;;;;;;;;;;;;4942573;28;124353;-64
2022/05/21 14:53:34;;;;;;;;;;;;;;;;;;4937105;28;119908;-65
2022/05/21 14:56:01;;;;;;;;;;;;;;;;;;4936326;28;138341;-63
2022/05/21 14:58:27;;;;;;;;;;;;;;;;;;4944575;28;123820;-64
2022/05/21 15:00:53;;;;;;;;;;;;;;;;;;4937539;28;128582;-63
2022/05/21 15:03:25;;;;;;;;;;;;;;;;;;4941151;28;122014;-64
2022/05/21 15:05:52;;;;;;;;;;;;;;;;;;4945921;28;136706;-65
2022/05/21 15:08:18;;;;;;;;;;;;;;;;;;4940724;28;136856;-65
2022/05/21 15:10:44;;;;;;;;;;;;;;;;;;4945999;28;117115;-65
2022/05/21 15:13:11;;;;;;;;;;;;;;;;;;4942500;28;126857;-65
2022/05/21 15:15:37;;;;;;;;;;;;;;;;;;4942189;28;137163;-65
2022/05/21 15:18:03;;;;;;;;;;;;;;;;;;4940592;28;106464;-65
2022/05/21 15:20:30;;;;;;;;;;;;;;;;;;4940565;28;136836;-66
2022/05/21 15:22:56;;;;;;;;;;;;;;;;;;4942815;28;123286;-65
2022/05/21 15:25:22;;;;;;;;;;;;;;;;;;4946480;28;123009;-66
2022/05/21 15:27:50;;;;;;;;;;;;;;;;;;4944209;28;132801;-65
2022/05/21 15:30:18;;;;;;;;;;;;;;;;;;4941404;28;106438;-65
2022/05/21 15:32:45;;;;;;;;;;;;;;;;;;4945698;28;107134;-65
2022/05/21 15:35:12;;;;;;;;;;;;;;;;;;4938562;28;136834;-65
2022/05/21 15:37:39;;;;;;;;;;;;;;;;;;4940614;28;123216;-63
2022/05/21 15:40:05;;;;;;;;;;;;;;;;;;4935746;28;136606;-63
2022/05/21 15:42:31;;;;;;;;;;;;;;;;;;4946141;28;135682;-63
2022/05/21 15:44:58;;;;;;;;;;;;;;;;;;4938098;28;136230;-63
2022/05/21 15:47:25;;;;;;;;;;;;;;;;;;4943820;28;138326;-64
2022/05/21 15:49:51;;;;;;;;;;;;;;;;;;4941222;28;123155;-63
2022/05/21 15:52:17;;;;;;;;;;;;;;;;;;4944633;28;136727;-63
2022/05/21 15:54:44;;;;;;;;;;;;;;;;;;4940773;28;108132;-63
2022/05/21 15:57:12;;;;;;;;;;;;;;;;;;4945949;28;121150;-63
2022/05/21 15:59:38;;;;;;;;;;;;;;;;;;4945572;28;136400;-64
2022/05/21 16:02:04;;;;;;;;;;;;;;;;;;4946034;28;109422;-64
2022/05/21 16:04:31;;;;;;;;;;;;;;;;;;4939924;28;133667;-64
2022/05/21 16:06:58;;;;;;;;;;;;;;;;;;4937295;28;122090;-64
2022/05/21 16:09:24;;;;;;;;;;;;;;;;;;4946031;28;113317;-64
2022/05/21 16:11:50;;;;;;;;;;;;;;;;;;4941326;28;136462;-64
2022/05/21 16:14:16;;;;;;;;;;;;;;;;;;4937963;28;135938;-64
2022/05/21 16:16:44;;;;;;;;;;;;;;;;;;4944249;28;106352;-64
2022/05/21 16:19:30;;;;;;;;;;;;;;;;;;4938452;28;106158;-64
2022/05/21 16:21:56;;;;;;;;;;;;;;;;;;4942460;28;128730;-64
2022/05/21 16:24:22;;;;;;;;;;;;;;;;;;4938862;28;121970;-64
2022/05/21 16:29:34;;;;;;;;;;;;;;;;;;4947152;28;108866;-65
2022/05/21 16:32:00;;;;;;;;;;;;;;;;;;4943676;28;118189;-64
2022/05/21 16:34:27;;;;;;;;;;;;;;;;;;4940562;28;136995;-66
2022/05/21 16:36:54;;;;;;;;;;;;;;;;;;4945107;28;106391;-63
2022/05/21 16:39:21;;;;;;;;;;;;;;;;;;4943245;28;136752;-64
2022/05/21 16:41:48;;;;;;;;;;;;;;;;;;4947006;28;137910;-66
2022/05/21 16:44:15;;;;;;;;;;;;;;;;;;4940789;28;124759;-65
2022/05/21 16:46:42;;;;;;;;;;;;;;;;;;4948424;28;137046;-65
2022/05/21 16:49:08;;;;;;;;;;;;;;;;;;4946095;28;121500;-65
2022/05/21 16:51:34;;;;;;;;;;;;;;;;;;4947445;28;135163;-65
2022/05/21 16:54:01;;;;;;;;;;;;;;;;;;4941439;28;134301;-65
2022/05/21 16:56:29;;;;;;;;;;;;;;;;;;4946717;28;106312;-65
2022/05/21 16:58:55;;;;;;;;;;;;;;;;;;4941765;28;135386;-67
2022/05/21 17:01:22;;;;;;;;;;;;;;;;;;4945456;28;115307;-66
2022/05/21 17:03:48;;;;;;;;;;;;;;;;;;4941021;28;118656;-65
2022/05/21 17:06:14;;;;;;;;;;;;;;;;;;4946911;28;137138;-65
2022/05/21 17:08:42;;;;;;;;;;;;;;;;;;4948480;28;107534;-65
2022/05/21 17:11:09;;;;;;;;;;;;;;;;;;4945655;28;114595;-65